Time;durP1;ratioP1;P1;durP2;ratioP2;P2;SDS_P1;SDS_P2;PMS_P1;PMS_P2;Temp;Humidity;BMP_temperature;BMP_pressure;BME280_temperature;BME280_humidity;BME280_pressure;Samples;Min_cycle;Max_cycle;Signal;HPM_P1;HPM_P2
2023/11/27 00:01:04;;;;;;;2.95;1.38;;;7.80;93.90;;;;;;5015499;28;20197;-44
2023/11/27 00:03:33;;;;;;;1.30;0.90;;;7.80;94.00;;;;;;5009853;28;20225;-44
2023/11/27 00:06:02;;;;;;;3.95;1.30;;;7.80;94.00;;;;;;5013522;28;20198;-45
2023/11/27 00:08:30;;;;;;;1.90;1.40;;;7.80;93.60;;;;;;5013669;28;20225;-44
2023/11/27 00:10:58;;;;;;;1.80;1.38;;;7.80;94.00;;;;;;5011840;28;20231;-43
2023/11/27 00:13:28;;;;;;;1.65;1.13;;;7.80;93.90;;;;;;5014539;28;20299;-44
2023/11/27 00:15:56;;;;;;;2.10;1.30;;;7.80;93.90;;;;;;5018070;28;20190;-46
2023/11/27 00:18:24;;;;;;;2.25;1.30;;;7.80;93.90;;;;;;5012202;28;20230;-43
2023/11/27 00:20:52;;;;;;;2.00;1.23;;;7.80;93.90;;;;;;5018660;28;20291;-43
2023/11/27 00:23:23;;;;;;;2.22;1.27;;;7.80;94.00;;;;;;5018031;28;20463;-44
2023/11/27 00:25:51;;;;;;;2.28;1.27;;;7.80;94.00;;;;;;5012477;28;20214;-47
2023/11/27 00:28:19;;;;;;;2.95;1.00;;;7.80;93.80;;;;;;5019456;28;20271;-44
2023/11/27 00:30:48;;;;;;;1.50;0.90;;;7.80;93.90;;;;;;5015278;28;20228;-44
2023/11/27 00:33:16;;;;;;;2.80;1.45;;;7.80;94.00;;;;;;5019426;28;20269;-48
2023/11/27 00:35:44;;;;;;;1.60;0.98;;;7.80;94.00;;;;;;5009486;28;20281;-46
2023/11/27 00:38:14;;;;;;;2.35;1.30;;;7.80;93.80;;;;;;5016354;28;20217;-45
2023/11/27 00:40:46;;;;;;;1.88;0.90;;;7.80;93.90;;;;;;5009185;28;20278;-44
2023/11/27 00:43:14;;;;;;;2.70;1.60;;;7.80;94.00;;;;;;5018113;28;20223;-45
2023/11/27 00:45:42;;;;;;;2.30;1.10;;;7.80;93.80;;;;;;5020489;28;20190;-45
2023/11/27 00:48:10;;;;;;;1.52;0.95;;;7.80;93.90;;;;;;5016619;28;20269;-50
2023/11/27 00:50:38;;;;;;;2.35;1.20;;;7.80;94.00;;;;;;5013756;28;20186;-44
2023/11/27 00:53:06;;;;;;;2.35;1.42;;;7.80;93.90;;;;;;5019126;28;20213;-44
2023/11/27 00:55:34;;;;;;;1.45;1.02;;;7.80;94.40;;;;;;5012878;28;20194;-47
2023/11/27 00:58:04;;;;;;;2.50;1.50;;;7.80;93.90;;;;;;5015020;28;20214;-44
2023/11/27 01:00:35;;;;;;;2.60;1.05;;;7.80;93.80;;;;;;5015072;28;20231;-43
2023/11/27 01:03:03;;;;;;;1.98;1.10;;;7.80;94.00;;;;;;5014945;28;20194;-42
2023/11/27 01:05:32;;;;;;;1.65;1.10;;;7.80;94.00;;;;;;5012784;28;20193;-45
2023/11/27 01:08:00;;;;;;;1.80;1.15;;;7.80;93.90;;;;;;5017486;28;20223;-44
2023/11/27 01:10:29;;;;;;;3.50;1.58;;;7.80;94.00;;;;;;5012422;28;20585;-44
2023/11/27 01:12:57;;;;;;;2.10;1.10;;;7.80;94.00;;;;;;5018391;28;20214;-43
2023/11/27 01:15:27;;;;;;;3.35;1.17;;;7.80;94.00;;;;;;5019540;28;20231;-43
2023/11/27 01:17:55;;;;;;;2.13;1.67;;;7.80;94.00;;;;;;5016884;28;20282;-44
2023/11/27 01:20:23;;;;;;;2.50;1.55;;;7.80;93.90;;;;;;5017486;28;20224;-47
2023/11/27 01:22:51;;;;;;;2.47;1.05;;;7.80;93.80;;;;;;5018295;28;20194;-43
2023/11/27 01:25:21;;;;;;;2.35;1.40;;;7.80;93.90;;;;;;5012502;28;20229;-44
2023/11/27 01:27:49;;;;;;;2.47;1.70;;;7.80;93.80;;;;;;5014421;28;20697;-45
2023/11/27 01:30:18;;;;;;;2.15;1.30;;;7.80;93.80;;;;;;5015210;28;20253;-44
2023/11/27 01:32:49;;;;;;;4.03;1.92;;;7.80;93.80;;;;;;5017750;28;20199;-44
2023/11/27 01:35:17;;;;;;;2.70;2.00;;;7.80;93.80;;;;;;5017534;28;20217;-45
2023/11/27 01:37:45;;;;;;;1.60;1.20;;;7.80;93.70;;;;;;5016888;28;20220;-44
2023/11/27 01:40:13;;;;;;;2.67;1.60;;;7.80;93.90;;;;;;5017032;28;20225;-44
2023/11/27 01:42:41;;;;;;;3.78;1.88;;;7.80;94.10;;;;;;5016617;28;20214;-45
2023/11/27 01:45:11;;;;;;;2.47;1.35;;;7.70;94.00;;;;;;5027489;28;20300;-45
2023/11/27 01:47:39;;;;;;;3.03;1.95;;;7.70;93.70;;;;;;5014633;28;20599;-44
2023/11/27 01:50:11;;;;;;;2.05;1.13;;;7.70;93.60;;;;;;5012555;28;20293;-44
2023/11/27 01:52:42;;;;;;;3.70;2.72;;;7.70;93.80;;;;;;5016460;28;20320;-46
2023/11/27 01:55:12;;;;;;;5.80;1.90;;;7.70;93.70;;;;;;5013484;28;20224;-48
2023/11/27 01:57:40;;;;;;;2.63;1.60;;;7.70;93.50;;;;;;5016506;28;20217;-44
2023/11/27 02:00:11;;;;;;;2.30;1.30;;;7.70;93.50;;;;;;5014220;28;20215;-43
2023/11/27 02:02:46;;;;;;;2.20;1.30;;;7.70;93.50;;;;;;5013092;28;20245;-43
2023/11/27 02:05:16;;;;;;;2.95;1.70;;;7.70;93.50;;;;;;5017251;28;20222;-43
2023/11/27 02:07:45;;;;;;;4.75;1.90;;;7.70;93.50;;;;;;5014902;28;20723;-44
2023/11/27 02:10:13;;;;;;;2.35;1.80;;;7.70;93.60;;;;;;5012601;28;20266;-44
2023/11/27 02:12:41;;;;;;;2.25;1.58;;;7.70;93.50;;;;;;5014261;28;20677;-43
2023/11/27 02:15:11;;;;;;;2.83;2.20;;;7.70;93.70;;;;;;5023244;28;20223;-46
2023/11/27 02:17:40;;;;;;;4.20;1.85;;;7.70;93.40;;;;;;5016366;28;20230;-47
2023/11/27 02:20:10;;;;;;;3.90;1.50;;;7.70;93.40;;;;;;5020750;28;20217;-44
2023/11/27 02:22:40;;;;;;;3.22;1.55;;;7.70;93.50;;;;;;5013495;28;20730;-43
2023/11/27 02:25:09;;;;;;;2.40;1.50;;;7.70;94.10;;;;;;5013399;28;20301;-45
2023/11/27 02:27:39;;;;;;;2.70;1.95;;;7.70;93.50;;;;;;5015086;28;20218;-44
2023/11/27 02:30:09;;;;;;;3.10;1.60;;;7.70;93.50;;;;;;5019800;28;20574;-45
2023/11/27 02:32:37;;;;;;;2.25;1.35;;;7.70;93.60;;;;;;5016707;28;20601;-45
2023/11/27 02:35:06;;;;;;;3.00;2.00;;;7.70;93.50;;;;;;5020623;28;20711;-46
2023/11/27 02:37:34;;;;;;;1.98;1.30;;;7.70;93.50;;;;;;5020435;28;20210;-44
2023/11/27 02:40:02;;;;;;;2.38;1.95;;;7.70;93.60;;;;;;5012877;28;20217;-46
2023/11/27 02:42:31;;;;;;;2.72;1.30;;;7.70;93.50;;;;;;5013725;28;20682;-44
2023/11/27 02:44:59;;;;;;;2.70;1.77;;;7.70;93.60;;;;;;5016674;28;20314;-43
2023/11/27 02:47:28;;;;;;;4.40;1.50;;;7.70;93.40;;;;;;5020736;28;20212;-47
2023/11/27 02:49:56;;;;;;;3.85;2.35;;;7.70;93.40;;;;;;5013163;28;20228;-47
2023/11/27 02:52:24;;;;;;;3.45;2.00;;;7.70;93.20;;;;;;5015665;28;20213;-44
2023/11/27 02:54:53;;;;;;;2.80;2.17;;;7.70;93.30;;;;;;5017190;28;20230;-43
2023/11/27 02:57:22;;;;;;;2.80;1.80;;;7.70;93.10;;;;;;5009499;28;20217;-45
2023/11/27 02:59:51;;;;;;;2.00;1.80;;;7.70;93.50;;;;;;5016818;28;20721;-46
2023/11/27 03:02:20;;;;;;;4.03;2.03;;;7.70;93.10;;;;;;5012073;28;20386;-44
2023/11/27 03:04:48;;;;;;;2.13;1.20;;;7.70;93.20;;;;;;5010420;28;20214;-44
2023/11/27 03:07:17;;;;;;;3.80;1.70;;;7.70;93.40;;;;;;5012864;28;20249;-45
2023/11/27 03:09:47;;;;;;;2.50;1.85;;;7.70;93.30;;;;;;5014789;28;20300;-43
2023/11/27 03:12:15;;;;;;;1.45;1.10;;;7.70;93.20;;;;;;5011827;28;20195;-43
2023/11/27 03:14:44;;;;;;;2.30;1.83;;;7.60;93.30;;;;;;5021989;28;20225;-44
2023/11/27 03:17:13;;;;;;;2.45;1.65;;;7.70;93.30;;;;;;5019024;28;20247;-44
2023/11/27 03:19:42;;;;;;;3.53;1.73;;;7.70;93.40;;;;;;5012925;28;20213;-44
2023/11/27 03:22:17;;;;;;;2.00;1.45;;;7.60;93.10;;;;;;5015858;28;20215;-46
2023/11/27 03:24:45;;;;;;;2.72;1.42;;;7.60;93.30;;;;;;5012838;28;20249;-44
2023/11/27 03:27:13;;;;;;;2.08;1.30;;;7.60;93.80;;;;;;5012554;28;20223;-45
2023/11/27 03:29:43;;;;;;;2.55;1.40;;;7.70;93.50;;;;;;5014141;28;20689;-45
2023/11/27 03:32:11;;;;;;;2.75;1.80;;;7.60;93.50;;;;;;5015298;28;20341;-45
2023/11/27 03:34:40;;;;;;;3.88;1.45;;;7.70;93.50;;;;;;5012990;28;20233;-45
2023/11/27 03:37:09;;;;;;;2.30;1.30;;;7.70;93.50;;;;;;5015125;28;20215;-45
2023/11/27 03:39:37;;;;;;;2.63;1.58;;;7.70;93.60;;;;;;5014484;28;20225;-44
2023/11/27 03:42:06;;;;;;;2.35;1.42;;;7.70;93.50;;;;;;5008821;28;20199;-44
2023/11/27 03:44:33;;;;;;;1.63;1.15;;;7.70;93.70;;;;;;5018211;28;20240;-45
2023/11/27 03:47:02;;;;;;;2.60;1.60;;;7.70;93.60;;;;;;5014944;28;20578;-44
2023/11/27 03:49:30;;;;;;;1.85;1.05;;;7.70;93.60;;;;;;5011337;28;20702;-46
2023/11/27 03:52:04;;;;;;;2.50;1.20;;;7.70;93.60;;;;;;5012610;28;20675;-44
2023/11/27 03:54:32;;;;;;;1.92;1.23;;;7.70;93.60;;;;;;5015949;28;20260;-43
2023/11/27 03:57:00;;;;;;;2.20;1.30;;;7.70;93.70;;;;;;5009370;28;20214;-44
2023/11/27 03:59:31;;;;;;;2.35;1.20;;;7.70;93.70;;;;;;5017410;28;20218;-44
2023/11/27 04:02:00;;;;;;;1.75;0.90;;;7.70;93.70;;;;;;5013749;28;20615;-44
2023/11/27 04:04:28;;;;;;;2.50;1.20;;;7.70;93.70;;;;;;5009388;28;20272;-45
2023/11/27 04:06:56;;;;;;;2.00;1.70;;;7.70;93.70;;;;;;5014624;28;20230;-45
2023/11/27 04:09:26;;;;;;;2.95;1.45;;;7.70;93.50;;;;;;5015073;28;20217;-45
2023/11/27 04:11:55;;;;;;;2.10;1.30;;;7.70;93.60;;;;;;5006469;28;20236;-43
2023/11/27 04:14:23;;;;;;;2.72;1.70;;;7.70;93.60;;;;;;5017013;28;20284;-44
2023/11/27 04:16:51;;;;;;;4.03;2.35;;;7.70;93.60;;;;;;5018596;28;20199;-45
2023/11/27 04:19:20;;;;;;;4.07;1.63;;;7.70;93.70;;;;;;5015331;28;20213;-49
2023/11/27 04:21:48;;;;;;;2.10;1.15;;;7.70;93.60;;;;;;5011360;28;20206;-44
2023/11/27 04:24:16;;;;;;;2.58;1.60;;;7.70;93.80;;;;;;5016988;28;20218;-45
2023/11/27 04:26:45;;;;;;;2.75;1.60;;;7.60;93.80;;;;;;5005552;28;20186;-44
2023/11/27 04:29:13;;;;;;;3.53;1.90;;;7.70;93.80;;;;;;5014448;28;20218;-44
2023/11/27 04:31:41;;;;;;;2.22;1.52;;;7.60;93.90;;;;;;5013140;28;20208;-45
2023/11/27 04:34:10;;;;;;;2.65;1.55;;;7.60;93.90;;;;;;5014853;28;20211;-45
2023/11/27 04:36:38;;;;;;;1.90;1.35;;;7.60;93.90;;;;;;5016450;28;20204;-46
2023/11/27 04:39:10;;;;;;;2.13;1.40;;;7.60;93.90;;;;;;5011020;28;20225;-44
2023/11/27 04:41:39;;;;;;;2.15;1.63;;;7.60;94.00;;;;;;5005626;28;20203;-44
2023/11/27 04:44:09;;;;;;;2.85;1.20;;;7.60;94.00;;;;;;5011547;28;20289;-45
2023/11/27 04:46:38;;;;;;;2.05;1.40;;;7.60;94.00;;;;;;5021260;28;20208;-44
2023/11/27 04:49:06;;;;;;;2.70;1.35;;;7.60;94.10;;;;;;5012582;28;20226;-45
2023/11/27 04:51:34;;;;;;;6.15;2.70;;;7.60;94.10;;;;;;5011300;28;20198;-44
2023/11/27 04:54:03;;;;;;;4.68;1.67;;;7.60;94.00;;;;;;5016601;28;20227;-43
2023/11/27 04:56:31;;;;;;;3.38;2.00;;;7.60;94.10;;;;;;5007511;28;20269;-45
2023/11/27 04:58:59;;;;;;;3.05;1.75;;;7.60;94.10;;;;;;5015762;28;20665;-43
2023/11/27 05:01:28;;;;;;;3.92;2.05;;;7.60;94.10;;;;;;5020245;28;20667;-45
2023/11/27 05:03:57;;;;;;;3.65;2.00;;;7.60;94.20;;;;;;5019102;28;20699;-43
2023/11/27 05:06:26;;;;;;;2.97;1.38;;;7.60;94.20;;;;;;5018695;28;20199;-44
2023/11/27 05:08:55;;;;;;;4.47;2.08;;;7.60;94.20;;;;;;5019195;28;20701;-45
2023/11/27 05:11:23;;;;;;;3.35;1.58;;;7.50;94.20;;;;;;5013419;28;20186;-44
2023/11/27 05:13:52;;;;;;;2.22;1.60;;;7.50;94.20;;;;;;5023135;28;20237;-44
2023/11/27 05:16:21;;;;;;;2.67;1.50;;;7.50;94.30;;;;;;5022323;28;20591;-47
2023/11/27 05:18:51;;;;;;;2.42;1.55;;;7.50;94.20;;;;;;5018693;28;20736;-44
2023/11/27 05:21:19;;;;;;;4.13;1.67;;;7.50;94.20;;;;;;5021297;28;20198;-44
2023/11/27 05:23:47;;;;;;;2.25;1.20;;;7.50;94.20;;;;;;5020893;28;20218;-43
2023/11/27 05:26:16;;;;;;;1.75;1.30;;;7.50;94.30;;;;;;5014872;28;20567;-43
2023/11/27 05:28:44;;;;;;;3.38;1.30;;;7.50;94.30;;;;;;5017426;28;20718;-45
2023/11/27 05:31:14;;;;;;;3.45;1.77;;;7.50;94.20;;;;;;5020802;28;20565;-44
2023/11/27 05:33:43;;;;;;;3.40;2.10;;;7.50;94.20;;;;;;5011954;28;20254;-43
2023/11/27 05:36:13;;;;;;;2.83;1.52;;;7.50;94.20;;;;;;5020311;28;20317;-46
2023/11/27 05:38:41;;;;;;;2.40;1.67;;;7.50;94.30;;;;;;5016559;28;20232;-44
2023/11/27 05:41:12;;;;;;;3.70;1.90;;;7.50;94.30;;;;;;5012339;28;20224;-44
2023/11/27 05:43:40;;;;;;;1.92;1.58;;;7.50;94.30;;;;;;5015496;28;20243;-43
2023/11/27 05:46:10;;;;;;;4.10;1.92;;;7.50;94.30;;;;;;5020635;28;20199;-47
2023/11/27 05:48:38;;;;;;;1.98;1.23;;;7.50;94.30;;;;;;5018833;28;20233;-45
2023/11/27 05:51:07;;;;;;;2.65;1.50;;;7.50;94.30;;;;;;5012363;28;20656;-48
2023/11/27 05:53:37;;;;;;;1.75;1.23;;;7.50;94.30;;;;;;5018286;28;20225;-45
2023/11/27 05:56:06;;;;;;;2.40;1.17;;;7.50;94.30;;;;;;5013051;28;20215;-45
2023/11/27 05:58:34;;;;;;;1.83;1.20;;;7.50;94.30;;;;;;5023565;28;20336;-44
2023/11/27 06:01:02;;;;;;;2.00;1.13;;;7.50;94.30;;;;;;5019041;28;20205;-43
2023/11/27 06:03:30;;;;;;;1.80;1.33;;;7.50;94.30;;;;;;5009767;28;20321;-44
2023/11/27 06:06:00;;;;;;;1.60;1.20;;;7.50;94.30;;;;;;5018442;28;20195;-45
2023/11/27 06:08:28;;;;;;;2.15;1.25;;;7.50;94.30;;;;;;5019731;28;20223;-44
2023/11/27 06:10:58;;;;;;;1.80;1.25;;;7.50;94.30;;;;;;5009874;28;20195;-46
2023/11/27 06:13:26;;;;;;;2.28;1.35;;;7.50;94.30;;;;;;5017919;28;20290;-44
2023/11/27 06:15:55;;;;;;;1.70;1.10;;;7.50;94.30;;;;;;5022088;28;20205;-46
2023/11/27 06:18:23;;;;;;;1.95;1.30;;;7.40;94.30;;;;;;5013151;28;20219;-46
2023/11/27 06:20:51;;;;;;;1.58;1.00;;;7.50;94.30;;;;;;5019525;28;20205;-47
2023/11/27 06:23:19;;;;;;;1.73;1.00;;;7.50;94.30;;;;;;5021121;28;20196;-46
2023/11/27 06:25:47;;;;;;;1.50;0.90;;;7.50;94.30;;;;;;5010337;28;20244;-46
2023/11/27 06:28:16;;;;;;;2.30;1.65;;;7.50;94.30;;;;;;5018737;28;20266;-47
2023/11/27 06:30:44;;;;;;;2.88;1.30;;;7.50;94.30;;;;;;5015147;28;20195;-43
2023/11/27 06:33:15;;;;;;;1.27;0.70;;;7.40;94.30;;;;;;5018573;28;20674;-45
2023/11/27 06:35:44;;;;;;;1.95;1.35;;;7.50;94.30;;;;;;5014012;28;20210;-43
2023/11/27 06:38:12;;;;;;;2.47;1.30;;;7.50;94.30;;;;;;5014866;28;20222;-43
2023/11/27 06:40:40;;;;;;;1.83;1.10;;;7.50;94.30;;;;;;5015491;28;20191;-44
2023/11/27 06:43:17;;;;;;;1.60;1.10;;;7.50;94.30;;;;;;5013992;28;20567;-43
2023/11/27 06:45:45;;;;;;;1.85;1.17;;;7.50;94.30;;;;;;5018468;28;20182;-45
2023/11/27 06:48:13;;;;;;;1.50;1.08;;;7.50;94.20;;;;;;5015820;28;20305;-44
2023/11/27 06:50:41;;;;;;;1.80;1.20;;;7.50;94.30;;;;;;5018647;28;20201;-44
2023/11/27 06:53:09;;;;;;;1.55;1.25;;;7.50;94.30;;;;;;5016675;28;20277;-45
2023/11/27 06:55:38;;;;;;;1.25;1.00;;;7.50;94.30;;;;;;5011059;28;20253;-47
2023/11/27 06:58:07;;;;;;;1.55;1.15;;;7.50;94.20;;;;;;5019275;28;20319;-45
2023/11/27 07:00:37;;;;;;;1.45;0.90;;;7.50;94.20;;;;;;5018237;28;20474;-43
2023/11/27 07:03:07;;;;;;;2.25;0.93;;;7.50;94.20;;;;;;5019416;28;20198;-43
2023/11/27 07:05:35;;;;;;;1.10;0.60;;;7.50;94.20;;;;;;5015513;28;20688;-44
2023/11/27 07:08:04;;;;;;;1.10;0.60;;;7.50;94.30;;;;;;5018855;28;20840;-43
2023/11/27 07:10:32;;;;;;;1.38;0.82;;;7.50;94.30;;;;;;5010734;28;20221;-44
2023/11/27 07:13:01;;;;;;;1.40;0.80;;;7.50;94.30;;;;;;5012108;28;20486;-43
2023/11/27 07:15:29;;;;;;;1.75;0.98;;;7.50;94.20;;;;;;5019470;28;20221;-44
2023/11/27 07:17:59;;;;;;;2.00;1.10;;;7.50;94.20;;;;;;5014983;28;20224;-43
2023/11/27 07:20:41;;;;;;;1.70;1.00;;;7.50;94.20;;;;;;5015264;28;20233;-46
2023/11/27 07:23:10;;;;;;;1.35;0.90;;;7.50;94.20;;;;;;5019336;28;20208;-44
2023/11/27 07:25:38;;;;;;;1.50;0.90;;;7.50;94.20;;;;;;5010559;28;20253;-47
2023/11/27 07:28:06;;;;;;;1.30;0.80;;;7.50;94.20;;;;;;5018981;28;20285;-47
2023/11/27 07:30:34;;;;;;;1.65;1.30;;;7.50;94.20;;;;;;5017278;28;20773;-45
2023/11/27 07:33:04;;;;;;;1.40;1.00;;;7.50;94.20;;;;;;5018217;28;20182;-45
2023/11/27 07:35:32;;;;;;;1.45;0.90;;;7.50;94.20;;;;;;5007415;28;20716;-43
2023/11/27 07:38:01;;;;;;;3.55;1.00;;;7.50;94.20;;;;;;5017675;28;20220;-43
2023/11/27 07:40:29;;;;;;;1.58;0.82;;;7.50;94.10;;;;;;5010908;28;20634;-44
2023/11/27 07:42:57;;;;;;;1.00;0.52;;;7.50;94.20;;;;;;5017595;28;20201;-44
2023/11/27 07:45:25;;;;;;;1.40;1.00;;;7.50;94.10;;;;;;5018751;28;20702;-44
2023/11/27 07:47:54;;;;;;;1.73;0.75;;;7.50;94.10;;;;;;5017674;28;20693;-44
2023/11/27 07:50:23;;;;;;;1.30;0.70;;;7.50;94.20;;;;;;5009588;28;20222;-44
2023/11/27 07:52:51;;;;;;;1.60;0.93;;;7.50;94.20;;;;;;5013089;28;20545;-45
2023/11/27 07:55:20;;;;;;;1.42;0.70;;;7.50;94.20;;;;;;5012067;28;20222;-44
2023/11/27 07:57:48;;;;;;;1.45;0.80;;;7.50;94.20;;;;;;5017431;28;20307;-43
2023/11/27 08:00:17;;;;;;;1.65;1.00;;;7.50;94.20;;;;;;5019398;28;20219;-47
2023/11/27 08:02:45;;;;;;;1.35;0.65;;;7.50;94.20;;;;;;5018137;28;20190;-47
2023/11/27 08:05:17;;;;;;;1.30;0.70;;;7.50;94.20;;;;;;5015407;28;20249;-46
2023/11/27 08:07:48;;;;;;;1.90;1.02;;;7.50;94.20;;;;;;5016940;28;20735;-44
2023/11/27 08:10:17;;;;;;;1.40;0.82;;;7.50;94.10;;;;;;5010820;28;20218;-47
2023/11/27 08:12:47;;;;;;;1.70;0.80;;;7.50;94.10;;;;;;5016747;28;20204;-46
2023/11/27 08:15:18;;;;;;;1.80;1.10;;;7.40;94.10;;;;;;5019648;28;21437;-44
2023/11/27 08:17:48;;;;;;;1.83;0.95;;;7.50;94.10;;;;;;5010738;28;20250;-45
2023/11/27 08:20:17;;;;;;;1.00;0.43;;;7.50;94.20;;;;;;5015691;28;20312;-46
2023/11/27 08:22:49;;;;;;;1.35;0.70;;;7.50;94.10;;;;;;5013978;28;20575;-43
2023/11/27 08:25:18;;;;;;;1.52;0.88;;;7.50;94.10;;;;;;5013318;28;21780;-43
2023/11/27 08:27:47;;;;;;;1.42;0.70;;;7.50;94.20;;;;;;5016748;28;20224;-46
2023/11/27 08:30:17;;;;;;;1.67;0.70;;;7.40;94.10;;;;;;5019378;28;20695;-54
2023/11/27 08:32:46;;;;;;;1.27;0.80;;;7.50;94.20;;;;;;5013237;28;20206;-45
2023/11/27 08:35:15;;;;;;;3.15;0.55;;;7.50;94.20;;;;;;5022026;28;20426;-44
2023/11/27 08:37:43;;;;;;;1.17;0.70;;;7.50;94.20;;;;;;5021610;28;20301;-43
2023/11/27 08:40:13;;;;;;;1.15;0.55;;;7.40;94.10;;;;;;5016338;28;20221;-45
2023/11/27 08:42:43;;;;;;;1.50;0.80;;;7.50;94.20;;;;;;5015286;28;20288;-45
2023/11/27 08:45:16;;;;;;;1.25;0.65;;;7.50;94.20;;;;;;5022355;28;20739;-46
2023/11/27 08:47:50;;;;;;;1.70;0.73;;;7.50;94.20;;;;;;5021719;28;22121;-44
2023/11/27 08:50:19;;;;;;;1.15;0.57;;;7.50;94.10;;;;;;5016725;28;20220;-46
2023/11/27 08:52:47;;;;;;;1.40;0.70;;;7.50;94.10;;;;;;5020178;28;20194;-45
2023/11/27 08:55:18;;;;;;;1.38;0.63;;;7.50;94.10;;;;;;5018382;28;20221;-43
2023/11/27 08:57:47;;;;;;;1.70;0.90;;;7.50;94.10;;;;;;5017003;28;20607;-45
2023/11/27 09:00:18;;;;;;;1.25;0.70;;;7.50;94.10;;;;;;5022708;28;20218;-47
2023/11/27 09:02:48;;;;;;;1.50;1.08;;;7.50;94.10;;;;;;5020760;28;20202;-46
2023/11/27 09:05:17;;;;;;;2.00;0.77;;;7.50;94.10;;;;;;5017340;28;20225;-47
2023/11/27 09:07:49;;;;;;;1.25;0.70;;;7.50;94.20;;;;;;5017395;28;20233;-44
2023/11/27 09:10:19;;;;;;;1.35;0.80;;;7.50;94.20;;;;;;5016555;28;20218;-44
2023/11/27 09:12:48;;;;;;;1.80;0.60;;;7.50;94.20;;;;;;5016076;28;20202;-45
2023/11/27 09:15:17;;;;;;;1.35;0.80;;;7.50;94.20;;;;;;5022561;28;20219;-43
2023/11/27 09:17:46;;;;;;;1.20;0.75;;;7.50;94.20;;;;;;5018834;28;21152;-44
2023/11/27 09:20:15;;;;;;;1.20;0.70;;;7.50;94.20;;;;;;5014001;28;20238;-44
2023/11/27 09:22:43;;;;;;;1.17;0.70;;;7.40;94.20;;;;;;5021236;28;20202;-44
2023/11/27 09:25:15;;;;;;;1.60;0.60;;;7.50;94.20;;;;;;5016929;28;20300;-45
2023/11/27 09:27:44;;;;;;;1.30;0.70;;;7.50;94.20;;;;;;5017810;28;20583;-45
2023/11/27 09:30:13;;;;;;;1.20;0.73;;;7.50;94.20;;;;;;5020323;28;20269;-47
2023/11/27 09:32:41;;;;;;;1.40;0.68;;;7.50;94.20;;;;;;5022709;28;20208;-44
2023/11/27 09:35:12;;;;;;;1.13;0.55;;;7.50;94.20;;;;;;5017784;28;20221;-44
2023/11/27 09:37:41;;;;;;;1.30;0.60;;;7.50;94.20;;;;;;5019866;28;20230;-45
2023/11/27 09:40:11;;;;;;;1.27;0.63;;;7.40;94.20;;;;;;5015353;28;20213;-45
2023/11/27 09:42:40;;;;;;;2.10;0.65;;;7.50;94.20;;;;;;5021806;28;20286;-44
2023/11/27 09:45:18;;;;;;;1.65;0.77;;;7.50;94.20;;;;;;5023347;28;20219;-44
2023/11/27 09:47:49;;;;;;;1.20;0.60;;;7.50;94.20;;;;;;5020333;28;20229;-45
2023/11/27 09:50:21;;;;;;;0.98;0.50;;;7.40;94.20;;;;;;5018724;28;20214;-43
2023/11/27 09:53:01;;;;;;;1.10;0.55;;;7.40;94.20;;;;;;5020332;28;20364;-44
2023/11/27 09:55:31;;;;;;;1.95;0.70;;;7.40;94.20;;;;;;5011143;28;20999;-44
2023/11/27 09:58:00;;;;;;;1.20;0.60;;;7.40;94.20;;;;;;5019386;28;20225;-44
2023/11/27 10:00:31;;;;;;;1.10;0.60;;;7.40;94.20;;;;;;5015951;28;20253;-44
2023/11/27 10:03:00;;;;;;;1.23;0.60;;;7.40;94.20;;;;;;5017489;28;20198;-44
2023/11/27 10:05:28;;;;;;;1.55;0.70;;;7.40;94.20;;;;;;5015573;28;20210;-44
2023/11/27 10:07:57;;;;;;;1.50;0.73;;;7.40;94.20;;;;;;5019639;28;20219;-48
2023/11/27 10:10:26;;;;;;;1.20;0.57;;;7.40;94.20;;;;;;5013800;28;20244;-45
2023/11/27 10:12:58;;;;;;;1.00;0.50;;;7.40;94.20;;;;;;5016752;28;20194;-44
2023/11/27 10:15:27;;;;;;;1.42;0.60;;;7.50;94.30;;;;;;5015861;28;20229;-46
2023/11/27 10:17:58;;;;;;;1.60;0.75;;;;;;;;;;5016864;28;20293;-43
2023/11/27 10:20:29;;;;;;;1.00;0.50;;;7.40;93.80;;;;;;5018269;28;20657;-44
2023/11/27 10:23:01;;;;;;;1.20;0.60;;;7.50;94.20;;;;;;5019892;28;20395;-44
2023/11/27 10:25:29;;;;;;;1.33;0.57;;;7.40;94.20;;;;;;5013056;28;20296;-45
2023/11/27 10:28:00;;;;;;;1.13;0.77;;;7.40;94.20;;;;;;5019477;28;20304;-46
2023/11/27 10:30:30;;;;;;;1.17;0.75;;;7.50;94.20;;;;;;5016507;28;20217;-44
2023/11/27 10:33:01;;;;;;;1.48;0.60;;;7.50;94.20;;;;;;5019371;28;20212;-45
2023/11/27 10:35:32;;;;;;;1.33;0.65;;;7.40;94.20;;;;;;5014184;28;20694;-45
2023/11/27 10:38:03;;;;;;;1.20;0.60;;;7.50;94.20;;;;;;5019745;28;20224;-46
2023/11/27 10:40:33;;;;;;;1.30;0.50;;;7.40;94.20;;;;;;5011217;28;20281;-45
2023/11/27 10:43:09;;;;;;;1.48;0.68;;;7.40;94.10;;;;;;5016470;28;20248;-45
2023/11/27 10:45:38;;;;;;;1.30;0.60;;;7.50;94.20;;;;;;5020889;28;20757;-43
2023/11/27 10:48:09;;;;;;;1.30;0.50;;;7.40;94.20;;;;;;5020691;28;20244;-44
2023/11/27 10:50:45;;;;;;;1.00;0.50;;;7.50;94.20;;;;;;5012457;28;20241;-45
2023/11/27 10:53:15;;;;;;;1.20;0.60;;;7.50;94.20;;;;;;5014707;28;20280;-44
2023/11/27 10:55:45;;;;;;;1.27;0.60;;;7.50;94.20;;;;;;4989663;28;20254;-44
2023/11/27 10:58:14;;;;;;;1.00;0.47;;;7.50;94.20;;;;;;4996440;28;20266;-44
2023/11/27 11:00:46;;;;;;;1.35;0.77;;;7.50;94.10;;;;;;5015317;28;20226;-44
2023/11/27 11:03:19;;;;;;;1.10;0.50;;;7.40;94.10;;;;;;5014270;28;20197;-44
2023/11/27 11:05:50;;;;;;;1.63;0.60;;;7.40;94.20;;;;;;5010831;28;20616;-44
2023/11/27 11:08:21;;;;;;;1.20;0.50;;;7.40;94.20;;;;;;5021514;28;20641;-47
2023/11/27 11:10:49;;;;;;;2.17;1.00;;;7.40;94.20;;;;;;5010010;28;20247;-44
2023/11/27 11:13:20;;;;;;;1.25;0.50;;;7.40;94.20;;;;;;5016366;28;20268;-44
2023/11/27 11:15:54;;;;;;;1.52;0.70;;;7.40;94.10;;;;;;5018960;28;20673;-45
2023/11/27 11:18:34;;;;;;;1.10;0.60;;;7.40;94.20;;;;;;5013501;28;20215;-45
2023/11/27 11:21:32;;;;;;;1.20;0.50;;;7.40;94.20;;;;;;5017021;28;20194;-44
2023/11/27 11:24:15;;;;;;;1.40;0.80;;;7.40;94.20;;;;;;5010869;28;20297;-45
2023/11/27 11:26:54;;;;;;;1.08;0.50;;;7.40;94.20;;;;;;5011038;28;20198;-44
2023/11/27 11:29:32;;;;;;;1.15;0.50;;;7.40;94.20;;;;;;5017208;28;20222;-44
2023/11/27 11:32:03;;;;;;;1.10;0.70;;;7.40;94.20;;;;;;5015828;28;20192;-43
2023/11/27 11:34:38;;;;;;;1.60;0.70;;;7.40;94.20;;;;;;5014973;28;20283;-44
2023/11/27 11:37:11;;;;;;;1.20;0.60;;;7.40;94.20;;;;;;5016002;28;20220;-47
2023/11/27 11:39:45;;;;;;;1.10;0.40;;;7.40;94.20;;;;;;5016975;28;20667;-43
2023/11/27 11:42:17;;;;;;;1.33;0.60;;;7.40;94.20;;;;;;5014441;28;20196;-43
2023/11/27 11:45:16;;;;;;;1.38;0.60;;;7.40;94.30;;;;;;5011712;28;20222;-46
2023/11/27 11:47:51;;;;;;;1.20;0.50;;;7.40;94.20;;;;;;5014430;28;20219;-45
2023/11/27 11:50:30;;;;;;;1.13;0.50;;;7.40;94.30;;;;;;5014450;28;20222;-44
2023/11/27 11:53:03;;;;;;;1.40;0.60;;;7.40;94.20;;;;;;5019167;28;20202;-46
2023/11/27 11:55:32;;;;;;;1.48;0.65;;;7.40;94.20;;;;;;5011724;28;20221;-45
2023/11/27 11:58:04;;;;;;;1.05;0.50;;;7.30;94.20;;;;;;5016866;28;20219;-46
2023/11/27 12:00:43;;;;;;;1.90;0.65;;;7.30;94.20;;;;;;5020215;28;20264;-43
2023/11/27 12:03:16;;;;;;;1.73;0.85;;;7.30;94.20;;;;;;5020798;28;20596;-44
2023/11/27 12:05:49;;;;;;;1.48;1.00;;;7.30;94.20;;;;;;5018779;28;20812;-44
2023/11/27 12:08:18;;;;;;;1.00;0.50;;;7.30;94.20;;;;;;5021703;28;20304;-47
2023/11/27 12:10:46;;;;;;;1.38;0.60;;;7.30;94.20;;;;;;5013776;28;20236;-45
2023/11/27 12:13:15;;;;;;;1.02;0.55;;;7.30;94.20;;;;;;5023268;28;20203;-43
2023/11/27 12:15:43;;;;;;;1.10;0.50;;;7.30;94.20;;;;;;5001710;28;20675;-46
2023/11/27 12:18:12;;;;;;;1.85;0.73;;;7.30;94.20;;;;;;5024679;28;20221;-50
2023/11/27 12:20:42;;;;;;;1.10;0.60;;;7.30;94.20;;;;;;5016534;28;20225;-45
2023/11/27 12:23:13;;;;;;;1.33;0.70;;;7.30;94.20;;;;;;5006501;28;20224;-47
2023/11/27 12:25:42;;;;;;;1.15;0.40;;;7.30;94.20;;;;;;5014305;28;20246;-45
2023/11/27 12:28:10;;;;;;;1.55;0.77;;;7.30;94.20;;;;;;5020352;28;20301;-44
2023/11/27 12:30:39;;;;;;;2.10;0.85;;;7.30;94.70;;;;;;5022797;28;20221;-45
2023/11/27 12:33:09;;;;;;;1.40;0.70;;;7.30;94.20;;;;;;5023511;28;20450;-45
2023/11/27 12:35:38;;;;;;;1.27;0.68;;;7.30;94.20;;;;;;5020974;28;20240;-46
2023/11/27 12:38:08;;;;;;;1.38;0.70;;;7.30;94.10;;;;;;5023183;28;20218;-45
2023/11/27 12:40:37;;;;;;;1.65;0.68;;;7.30;94.60;;;;;;4998592;28;20498;-45
2023/11/27 12:43:07;;;;;;;1.25;0.80;;;7.30;94.10;;;;;;5018358;28;20711;-46
2023/11/27 12:45:37;;;;;;;1.98;0.80;;;7.30;94.20;;;;;;5002131;28;20642;-47
2023/11/27 12:48:07;;;;;;;1.55;0.50;;;7.30;94.20;;;;;;5016609;28;20763;-48
2023/11/27 12:50:39;;;;;;;1.20;0.60;;;7.40;94.20;;;;;;5018102;28;20229;-46
2023/11/27 12:53:08;;;;;;;1.30;0.65;;;7.30;94.10;;;;;;5019087;28;20198;-44
2023/11/27 12:55:46;;;;;;;1.17;0.57;;;7.30;94.10;;;;;;5012763;28;20222;-45
2023/11/27 12:58:17;;;;;;;1.58;0.60;;;7.30;94.20;;;;;;5024395;28;20587;-44
2023/11/27 13:00:46;;;;;;;1.20;0.50;;;7.30;94.20;;;;;;4997980;28;20348;-46
2023/11/27 13:03:19;;;;;;;1.90;0.70;;;7.40;94.20;;;;;;5004615;28;20724;-44
2023/11/27 13:05:51;;;;;;;1.40;0.40;;;7.30;94.10;;;;;;5019561;28;20225;-45
2023/11/27 13:08:24;;;;;;;1.55;0.85;;;7.30;94.20;;;;;;5019591;28;20209;-45
2023/11/27 13:10:57;;;;;;;1.42;0.60;;;7.30;94.20;;;;;;4987800;28;20230;-44